createdAt,value
2018-03-28T00:02:02.398Z,3.50
2018-03-28T00:04:30.721Z,3.60
2018-03-28T00:06:58.237Z,3.50
2018-03-28T00:09:26.534Z,3.50
2018-03-28T00:11:54.088Z,3.50
2018-03-28T00:14:21.606Z,3.40
2018-03-28T00:16:49.142Z,3.40
2018-03-28T00:19:16.697Z,3.30
2018-03-28T00:21:44.228Z,3.30
2018-03-28T00:24:11.757Z,3.20
2018-03-28T00:26:39.313Z,3.20
2018-03-28T00:29:06.848Z,3.20
2018-03-28T00:31:34.376Z,3.20
2018-03-28T00:34:01.916Z,3.30
2018-03-28T00:36:30.222Z,3.40
2018-03-28T00:38:57.735Z,3.40
2018-03-28T00:41:26.051Z,3.30
2018-03-28T00:43:53.582Z,3.30
2018-03-28T00:46:21.869Z,3.40
2018-03-28T00:48:49.416Z,3.40
2018-03-28T00:51:29.773Z,3.60
2018-03-28T00:53:58.088Z,3.70
2018-03-28T00:56:25.852Z,3.60
2018-03-28T00:58:53.382Z,3.70
2018-03-28T01:01:20.952Z,3.70
2018-03-28T01:03:48.471Z,3.80
2018-03-28T01:06:16.966Z,4.00
2018-03-28T01:08:45.290Z,4.00
2018-03-28T01:11:12.814Z,4.00
2018-03-28T01:13:41.108Z,3.90
2018-03-28T01:16:08.674Z,3.90
2018-03-28T01:18:36.192Z,3.90
2018-03-28T01:21:03.722Z,4.00
2018-03-28T01:23:31.278Z,4.00
2018-03-28T01:25:58.812Z,4.10
2018-03-28T01:28:26.332Z,4.10
2018-03-28T01:30:54.649Z,4.00
2018-03-28T01:33:22.184Z,4.00
2018-03-28T01:35:50.467Z,3.90
2018-03-28T01:38:18.038Z,3.90
2018-03-28T01:40:45.552Z,3.80
2018-03-28T01:43:13.094Z,3.90
2018-03-28T01:45:40.638Z,3.90
2018-03-28T01:48:08.160Z,3.90
2018-03-28T01:50:35.687Z,4.10
2018-03-28T01:53:03.244Z,4.10
2018-03-28T01:55:30.766Z,4.00
2018-03-28T01:57:58.314Z,3.90
2018-03-28T02:00:25.879Z,3.80
2018-03-28T02:02:53.403Z,3.70
2018-03-28T02:05:21.741Z,3.50
2018-03-28T02:07:49.278Z,3.50
2018-03-28T02:10:16.801Z,3.40
2018-03-28T02:12:45.101Z,3.20
2018-03-28T02:15:12.671Z,3.20
2018-03-28T02:17:40.240Z,3.20
2018-03-28T02:20:07.736Z,3.20
2018-03-28T02:22:36.054Z,3.10
2018-03-28T02:25:03.580Z,3.10
2018-03-28T02:27:31.862Z,3.20
2018-03-28T02:30:00.162Z,3.20
2018-03-28T02:32:27.708Z,3.20
2018-03-28T02:34:55.228Z,3.20
2018-03-28T02:37:22.763Z,3.20
2018-03-28T02:39:50.299Z,3.20
2018-03-28T02:42:17.822Z,3.20
2018-03-28T02:44:46.140Z,3.20
2018-03-28T02:47:13.653Z,3.20
2018-03-28T02:49:41.955Z,3.30
2018-03-28T02:52:09.506Z,3.20
2018-03-28T02:54:37.805Z,3.30
2018-03-28T02:57:05.349Z,3.20
2018-03-28T02:59:33.658Z,3.30
2018-03-28T03:02:01.194Z,3.30
2018-03-28T03:04:28.736Z,3.30
2018-03-28T03:06:56.297Z,3.30
2018-03-28T03:09:24.615Z,3.40
2018-03-28T03:11:52.165Z,3.40
2018-03-28T03:14:19.684Z,3.50
2018-03-28T03:16:47.998Z,3.60
2018-03-28T03:19:15.579Z,3.60
2018-03-28T03:21:43.114Z,3.70
2018-03-28T03:24:10.642Z,3.70
2018-03-28T03:26:38.942Z,3.80
2018-03-28T03:29:06.497Z,3.80
2018-03-28T03:31:34.022Z,3.90
2018-03-28T03:34:01.561Z,4.00
2018-03-28T03:36:29.097Z,4.00
2018-03-28T03:38:56.637Z,4.00
2018-03-28T03:41:24.168Z,4.00
2018-03-28T03:43:52.476Z,4.10
2018-03-28T03:46:20.003Z,4.10
2018-03-28T03:48:48.309Z,4.30
2018-03-28T03:51:15.862Z,4.30
2018-03-28T03:53:44.143Z,4.40
2018-03-28T03:56:11.694Z,4.40
2018-03-28T03:58:39.201Z,4.50
2018-03-28T04:01:06.728Z,4.50
2018-03-28T04:03:34.264Z,4.60
2018-03-28T04:06:02.579Z,4.60
2018-03-28T04:08:30.108Z,4.60
2018-03-28T04:10:57.649Z,4.60
2018-03-28T04:13:25.938Z,4.60
2018-03-28T04:15:53.454Z,4.60
2018-03-28T04:18:20.997Z,4.50
2018-03-28T04:20:48.509Z,4.40
2018-03-28T04:23:16.814Z,4.30
2018-03-28T04:25:44.341Z,4.30
2018-03-28T04:28:12.638Z,4.50
2018-03-28T04:30:40.176Z,4.40
2018-03-28T04:33:08.497Z,4.60
2018-03-28T04:35:36.016Z,4.60
2018-03-28T04:38:04.323Z,4.70
2018-03-28T04:40:31.836Z,4.70
2018-03-28T04:42:59.372Z,4.90
2018-03-28T04:45:26.917Z,5.10
2018-03-28T04:47:54.464Z,5.20
2018-03-28T04:50:21.997Z,5.30
2018-03-28T04:52:49.534Z,5.40
2018-03-28T04:55:17.850Z,5.50
2018-03-28T04:57:45.379Z,5.50
2018-03-28T05:00:13.701Z,5.50
2018-03-28T05:02:41.228Z,5.50
2018-03-28T05:05:09.628Z,5.50
2018-03-28T05:07:37.170Z,5.50
2018-03-28T05:10:04.705Z,5.60
2018-03-28T05:12:33.003Z,5.70
2018-03-28T05:15:00.524Z,5.70
2018-03-28T05:17:28.052Z,5.80
2018-03-28T05:19:55.596Z,5.70
2018-03-28T05:22:23.139Z,5.70
2018-03-28T05:24:50.672Z,5.70
2018-03-28T05:27:18.200Z,5.60
2018-03-28T05:29:45.713Z,5.50
2018-03-28T05:32:13.264Z,5.50
2018-03-28T05:34:41.558Z,5.40
2018-03-28T05:37:09.094Z,5.40
2018-03-28T05:39:37.396Z,5.40
2018-03-28T05:42:04.910Z,5.50
2018-03-28T05:44:32.463Z,5.50
2018-03-28T05:46:59.981Z,5.50
2018-03-28T05:49:27.534Z,5.50
2018-03-28T05:51:55.059Z,5.50
2018-03-28T05:54:23.391Z,5.50
2018-03-28T05:56:50.923Z,5.50
2018-03-28T05:59:18.459Z,5.50
2018-03-28T06:01:46.776Z,5.60
2018-03-28T06:04:14.366Z,5.60
2018-03-28T06:06:41.889Z,5.70
2018-03-28T06:09:10.345Z,5.70
2018-03-28T06:11:38.642Z,5.90
2018-03-28T06:14:06.180Z,5.90
2018-03-28T06:16:34.501Z,6.20
2018-03-28T06:19:02.026Z,6.20
2018-03-28T06:21:29.585Z,6.30
2018-03-28T06:23:57.330Z,6.40
2018-03-28T06:26:25.617Z,6.60
2018-03-28T06:28:53.924Z,6.70
2018-03-28T06:31:21.476Z,6.70
2018-03-28T06:33:49.033Z,6.70
2018-03-28T06:36:16.592Z,6.80
2018-03-28T06:38:44.126Z,6.70
2018-03-28T06:41:12.409Z,6.70
2018-03-28T06:43:40.712Z,6.70
2018-03-28T06:46:08.248Z,6.70
2018-03-28T06:48:36.524Z,6.80
2018-03-28T06:51:04.061Z,6.80
2018-03-28T06:53:32.415Z,6.90
2018-03-28T06:55:59.927Z,6.90
2018-03-28T06:58:27.460Z,7.10
2018-03-28T07:00:55.762Z,7.30
2018-03-28T07:03:23.290Z,7.30
2018-03-28T07:05:50.838Z,7.40
2018-03-28T07:08:18.352Z,7.40
2018-03-28T07:10:45.872Z,7.50
2018-03-28T07:13:14.174Z,7.60
2018-03-28T07:15:41.693Z,7.60
2018-03-28T07:18:09.240Z,7.70
2018-03-28T07:20:36.772Z,7.80
2018-03-28T07:23:04.315Z,7.80
2018-03-28T07:25:31.841Z,7.80
2018-03-28T07:28:00.165Z,7.90
2018-03-28T07:30:27.732Z,7.90
2018-03-28T07:32:55.281Z,8.00
2018-03-28T07:35:22.795Z,8.10
2018-03-28T07:37:51.087Z,8.00
2018-03-28T07:40:18.653Z,8.10
2018-03-28T07:42:46.189Z,8.20
2018-03-28T07:45:14.513Z,8.30
2018-03-28T07:47:42.055Z,8.30
2018-03-28T07:50:09.604Z,8.30
2018-03-28T07:52:37.138Z,8.40
2018-03-28T07:55:05.493Z,8.70
2018-03-28T07:57:33.039Z,8.70
2018-03-28T08:00:00.571Z,9.00
2018-03-28T08:02:28.117Z,9.10
2018-03-28T08:04:55.639Z,9.10
2018-03-28T08:07:23.174Z,9.00
2018-03-28T08:09:50.712Z,9.00
2018-03-28T08:12:18.261Z,9.00
2018-03-28T08:14:45.806Z,9.00
2018-03-28T08:17:13.347Z,8.90
2018-03-28T08:19:40.870Z,8.90
2018-03-28T08:22:08.411Z,8.90
2018-03-28T08:24:36.720Z,8.90
2018-03-28T08:27:04.247Z,8.90
2018-03-28T08:29:31.801Z,8.90
2018-03-28T08:31:59.340Z,8.80
2018-03-28T08:34:26.875Z,8.90
2018-03-28T08:36:54.412Z,9.00
2018-03-28T08:39:21.950Z,9.10
2018-03-28T08:41:49.514Z,9.30
2018-03-28T08:44:17.072Z,9.40
2018-03-28T08:46:44.615Z,9.60
2018-03-28T08:49:12.147Z,9.80
2018-03-28T08:51:40.466Z,9.90
2018-03-28T08:54:08.021Z,9.90
2018-03-28T08:56:35.558Z,9.90
2018-03-28T08:59:03.096Z,10.00
2018-03-28T09:01:30.640Z,10.10
2018-03-28T09:03:58.180Z,10.00
2018-03-28T09:06:25.758Z,10.10
2018-03-28T09:08:53.295Z,10.10
2018-03-28T09:11:20.822Z,10.10
2018-03-28T09:13:48.356Z,10.10
2018-03-28T09:16:16.648Z,10.10
2018-03-28T09:18:44.225Z,10.10
2018-03-28T09:21:11.781Z,10.10
2018-03-28T09:23:39.340Z,10.20
2018-03-28T09:26:06.944Z,10.20
2018-03-28T09:28:34.439Z,10.30
2018-03-28T09:31:02.751Z,10.80
2018-03-28T09:33:30.301Z,10.80
2018-03-28T09:35:57.838Z,11.10
2018-03-28T09:38:25.380Z,11.10
2018-03-28T09:40:52.925Z,11.10
2018-03-28T09:43:20.470Z,11.10
2018-03-28T09:45:48.012Z,11.20
2018-03-28T09:48:15.538Z,11.20
2018-03-28T09:50:43.081Z,11.20
2018-03-28T09:53:10.631Z,11.20
2018-03-28T09:55:38.197Z,11.20
2018-03-28T09:58:06.489Z,11.30
2018-03-28T10:00:34.015Z,11.20
2018-03-28T10:03:07.186Z,11.40
2018-03-28T10:05:38.616Z,11.50
2018-03-28T10:08:06.164Z,11.60
2018-03-28T10:10:33.682Z,11.60
2018-03-28T10:13:01.218Z,11.60
2018-03-28T10:15:28.759Z,11.70
2018-03-28T10:17:56.320Z,11.60
2018-03-28T10:20:23.845Z,11.50
2018-03-28T10:22:51.395Z,11.40
2018-03-28T10:25:19.715Z,11.30
2018-03-28T10:27:47.247Z,11.30
2018-03-28T10:30:14.811Z,11.40
2018-03-28T10:32:42.347Z,11.40
2018-03-28T10:35:10.686Z,11.40
2018-03-28T10:37:38.204Z,11.30
2018-03-28T10:40:05.773Z,11.30
2018-03-28T10:42:33.320Z,11.30
2018-03-28T10:45:00.903Z,11.40
2018-03-28T10:47:28.451Z,11.40
2018-03-28T10:49:55.979Z,11.50
2018-03-28T10:52:24.301Z,11.50
2018-03-28T10:54:51.846Z,11.50
2018-03-28T10:57:19.417Z,11.50
2018-03-28T10:59:46.934Z,11.60
2018-03-28T11:02:15.251Z,11.50
2018-03-28T11:04:42.790Z,11.50
2018-03-28T11:07:10.345Z,11.50
2018-03-28T11:09:37.900Z,11.50
2018-03-28T11:12:05.461Z,11.50
2018-03-28T11:14:33.007Z,11.50
2018-03-28T11:17:01.290Z,11.40
2018-03-28T11:19:29.592Z,11.40
2018-03-28T11:21:57.114Z,11.30
2018-03-28T11:24:25.420Z,11.30
2018-03-28T11:26:53.038Z,11.30
2018-03-28T11:29:20.580Z,11.50
2018-03-28T11:31:48.099Z,11.50
2018-03-28T11:34:15.650Z,11.60
2018-03-28T11:36:43.170Z,11.70
2018-03-28T11:39:10.726Z,11.70
2018-03-28T11:41:39.066Z,11.70
2018-03-28T11:44:06.584Z,11.70
2018-03-28T11:46:34.900Z,11.70
2018-03-28T11:49:02.420Z,11.70
2018-03-28T11:51:30.721Z,11.70
2018-03-28T11:53:58.248Z,11.80
2018-03-28T11:56:26.556Z,11.70
2018-03-28T11:58:54.077Z,11.70
2018-03-28T12:01:21.628Z,11.70
2018-03-28T12:03:49.207Z,11.80
2018-03-28T12:06:17.536Z,11.80
2018-03-28T12:08:45.063Z,11.80
2018-03-28T12:11:12.629Z,11.70
2018-03-28T12:13:40.262Z,11.70
2018-03-28T12:16:08.586Z,11.70
2018-03-28T12:18:36.108Z,11.70
2018-03-28T12:21:05.255Z,11.70
2018-03-28T12:23:32.806Z,11.70
2018-03-28T12:26:00.339Z,11.90
2018-03-28T12:28:27.873Z,12.00
2018-03-28T12:30:56.166Z,12.10
2018-03-28T12:33:23.720Z,12.10
2018-03-28T12:35:52.010Z,12.10
2018-03-28T12:38:19.533Z,12.10
2018-03-28T12:40:47.090Z,12.10
2018-03-28T12:43:14.631Z,12.10
2018-03-28T12:45:42.174Z,12.10
2018-03-28T12:48:09.710Z,12.20
2018-03-28T12:50:37.312Z,12.20
2018-03-28T12:53:04.847Z,12.20
2018-03-28T12:55:32.378Z,12.20
2018-03-28T12:57:59.917Z,12.20
2018-03-28T13:00:28.233Z,12.10
2018-03-28T13:02:55.784Z,12.10
2018-03-28T13:05:23.369Z,12.10
2018-03-28T13:07:51.737Z,12.00
2018-03-28T13:10:19.998Z,12.00
2018-03-28T13:12:47.542Z,12.00
2018-03-28T13:15:15.845Z,12.00
2018-03-28T13:17:43.357Z,12.00
2018-03-28T13:20:11.146Z,12.10
2018-03-28T13:22:38.681Z,12.10
2018-03-28T13:25:06.217Z,12.10
2018-03-28T13:27:33.752Z,12.20
2018-03-28T13:30:01.302Z,12.20
2018-03-28T13:32:28.815Z,12.20
2018-03-28T13:34:56.350Z,12.10
2018-03-28T13:37:23.888Z,12.10
2018-03-28T13:39:51.446Z,12.00
2018-03-28T13:42:18.972Z,12.10
2018-03-28T13:44:47.258Z,12.00
2018-03-28T13:47:14.815Z,12.00
2018-03-28T13:49:42.343Z,12.00
2018-03-28T13:52:09.885Z,12.10
2018-03-28T13:54:37.450Z,12.20
2018-03-28T13:57:04.996Z,12.20
2018-03-28T13:59:32.516Z,12.30
2018-03-28T14:02:00.075Z,12.30
2018-03-28T14:04:27.609Z,12.30
2018-03-28T14:06:55.917Z,12.40
2018-03-28T14:09:23.480Z,12.40
2018-03-28T14:11:51.019Z,12.50
2018-03-28T14:14:18.566Z,12.50
2018-03-28T14:16:46.883Z,12.50
2018-03-28T14:19:14.416Z,12.50
2018-03-28T14:21:42.003Z,12.60
2018-03-28T14:24:10.269Z,12.50
2018-03-28T14:26:37.804Z,12.50
2018-03-28T14:29:06.126Z,12.50
2018-03-28T14:31:33.656Z,12.50
2018-03-28T14:34:01.175Z,12.50
2018-03-28T14:36:28.710Z,12.50
2018-03-28T14:38:56.230Z,12.50
2018-03-28T14:41:24.645Z,12.50
2018-03-28T14:43:52.172Z,12.50
2018-03-28T14:46:19.724Z,12.50
2018-03-28T14:48:47.252Z,12.50
2018-03-28T14:51:14.809Z,12.50
2018-03-28T14:53:42.328Z,12.40
2018-03-28T14:56:09.848Z,12.40
2018-03-28T14:58:38.165Z,12.40
2018-03-28T15:01:05.714Z,12.30
2018-03-28T15:03:33.266Z,12.40
2018-03-28T15:06:00.799Z,12.40
2018-03-28T15:08:29.117Z,12.30
2018-03-28T15:10:56.675Z,12.30
2018-03-28T15:13:24.255Z,12.30
2018-03-28T15:15:51.976Z,12.20
2018-03-28T15:18:19.522Z,12.20
2018-03-28T15:20:47.826Z,12.20
2018-03-28T15:23:15.364Z,12.10
2018-03-28T15:25:42.919Z,12.10
2018-03-28T15:28:11.206Z,11.90
2018-03-28T15:30:38.769Z,11.90
2018-03-28T15:33:06.338Z,11.90
2018-03-28T15:35:33.886Z,11.80
2018-03-28T15:38:01.430Z,11.80
2018-03-28T15:40:29.756Z,11.60
2018-03-28T15:42:57.305Z,11.60
2018-03-28T15:45:24.857Z,11.40
2018-03-28T15:47:52.404Z,11.30
2018-03-28T15:50:19.944Z,11.20
2018-03-28T15:52:48.250Z,11.10
2018-03-28T15:55:15.779Z,11.10
2018-03-28T15:57:44.089Z,10.90
2018-03-28T16:00:11.604Z,10.90
2018-03-28T16:02:39.156Z,10.80
2018-03-28T16:05:06.692Z,10.70
2018-03-28T16:07:34.241Z,10.60
2018-03-28T16:10:01.772Z,10.50
2018-03-28T16:12:29.330Z,10.40
2018-03-28T16:14:56.879Z,10.30
2018-03-28T16:17:24.427Z,10.20
2018-03-28T16:19:52.718Z,10.20
2018-03-28T16:22:20.243Z,10.20
2018-03-28T16:24:47.808Z,10.10
2018-03-28T16:27:15.320Z,10.00
2018-03-28T16:29:42.862Z,9.90
2018-03-28T16:32:10.392Z,9.80
2018-03-28T16:34:40.471Z,9.70
2018-03-28T16:37:08.005Z,9.70
2018-03-28T16:39:35.563Z,9.70
2018-03-28T16:42:03.100Z,9.70
2018-03-28T16:44:30.636Z,9.70
2018-03-28T16:46:58.666Z,9.70
2018-03-28T16:49:26.198Z,9.60
2018-03-28T16:51:53.741Z,9.60
2018-03-28T16:54:22.018Z,9.60
2018-03-28T16:56:50.349Z,9.60
2018-03-28T16:59:18.644Z,9.60
2018-03-28T17:01:46.187Z,9.50
2018-03-28T17:04:13.704Z,9.60
2018-03-28T17:06:41.209Z,9.50
2018-03-28T17:09:08.752Z,9.50
2018-03-28T17:11:36.312Z,9.50
2018-03-28T17:14:03.891Z,9.50
2018-03-28T17:16:31.413Z,9.50
2018-03-28T17:18:58.962Z,9.50
2018-03-28T17:21:26.497Z,9.50
2018-03-28T17:23:54.812Z,9.50
2018-03-28T17:26:23.113Z,9.40
2018-03-28T17:28:50.638Z,9.40
2018-03-28T17:31:18.181Z,9.40
2018-03-28T17:33:46.467Z,9.50
2018-03-28T17:36:14.060Z,9.40
2018-03-28T17:38:41.564Z,9.50
2018-03-28T17:41:09.894Z,9.60
2018-03-28T17:43:37.434Z,9.50
2018-03-28T17:46:04.976Z,9.50
2018-03-28T17:48:33.279Z,9.30
2018-03-28T17:51:00.838Z,9.30
2018-03-28T17:53:28.401Z,9.20
2018-03-28T17:55:55.942Z,9.20
2018-03-28T17:58:23.492Z,9.10
2018-03-28T18:00:51.031Z,9.00
2018-03-28T18:03:19.342Z,8.80
2018-03-28T18:05:46.872Z,8.80
2018-03-28T18:08:15.196Z,8.70
2018-03-28T18:10:42.721Z,8.60
2018-03-28T18:13:10.287Z,8.60
2018-03-28T18:15:38.634Z,8.60
2018-03-28T18:18:06.223Z,8.60
2018-03-28T18:20:33.763Z,8.60
2018-03-28T18:23:02.080Z,8.60
2018-03-28T18:25:29.636Z,8.50
2018-03-28T18:27:57.187Z,8.50
2018-03-28T18:30:24.738Z,8.60
2018-03-28T18:32:52.418Z,8.50
2018-03-28T18:35:19.970Z,8.50
2018-03-28T18:37:47.522Z,8.50
2018-03-28T18:40:15.091Z,8.60
2018-03-28T18:42:42.627Z,8.60
2018-03-28T18:45:10.910Z,8.50
2018-03-28T18:47:38.477Z,8.50
2018-03-28T18:50:06.034Z,8.50
2018-03-28T18:52:33.592Z,8.40
2018-03-28T18:55:01.125Z,8.40
2018-03-28T18:57:29.436Z,8.40
2018-03-28T18:59:56.983Z,8.40
2018-03-28T19:02:24.513Z,8.40
2018-03-28T19:04:52.053Z,8.40
2018-03-28T19:07:19.594Z,8.40
2018-03-28T19:09:47.160Z,8.40
2018-03-28T19:12:14.715Z,8.30
2018-03-28T19:14:42.286Z,8.30
2018-03-28T19:17:09.815Z,8.30
2018-03-28T19:19:37.340Z,8.20
2018-03-28T19:22:05.664Z,8.20
2018-03-28T19:24:33.207Z,8.20
2018-03-28T19:27:00.766Z,8.20
2018-03-28T19:29:28.309Z,8.20
2018-03-28T19:31:55.858Z,8.20
2018-03-28T19:34:24.158Z,8.30
2018-03-28T19:36:51.723Z,8.30
2018-03-28T19:39:19.266Z,8.40
2018-03-28T19:41:46.810Z,8.30
2018-03-28T19:44:15.138Z,8.30
2018-03-28T19:46:42.678Z,8.40
2018-03-28T19:49:10.225Z,8.30
2018-03-28T19:51:37.763Z,8.30
2018-03-28T19:54:06.091Z,8.20
2018-03-28T19:56:34.010Z,8.10
2018-03-28T19:59:02.341Z,8.10
2018-03-28T20:01:29.891Z,8.00
2018-03-28T20:03:57.452Z,8.00
2018-03-28T20:06:24.992Z,8.00
2018-03-28T20:08:52.601Z,8.00
2018-03-28T20:11:20.173Z,8.00
2018-03-28T20:13:48.481Z,8.00
2018-03-28T20:16:16.023Z,8.00
2018-03-28T20:18:44.325Z,8.00
2018-03-28T20:21:12.653Z,8.00
2018-03-28T20:23:40.183Z,8.00
2018-03-28T20:26:07.733Z,8.00
2018-03-28T20:28:35.257Z,8.00
2018-03-28T20:31:03.547Z,8.00
2018-03-28T20:33:31.108Z,7.90
2018-03-28T20:35:58.633Z,8.00
2018-03-28T20:38:26.198Z,7.90
2018-03-28T20:40:53.726Z,7.90
2018-03-28T20:43:21.271Z,7.80
2018-03-28T20:45:48.812Z,7.80
2018-03-28T20:48:16.375Z,7.80
2018-03-28T20:50:43.912Z,7.70
2018-03-28T20:53:12.195Z,7.70
2018-03-28T20:55:39.741Z,7.70
2018-03-28T20:58:08.030Z,7.80
2018-03-28T21:00:35.580Z,7.80
2018-03-28T21:03:03.131Z,7.80
2018-03-28T21:05:31.444Z,7.80
2018-03-28T21:07:58.982Z,7.80
2018-03-28T21:10:26.535Z,7.80
2018-03-28T21:12:54.849Z,7.80
2018-03-28T21:15:22.400Z,7.80
2018-03-28T21:17:50.726Z,7.80
2018-03-28T21:20:18.267Z,7.80
2018-03-28T21:22:45.834Z,7.80
2018-03-28T21:25:13.379Z,7.80
2018-03-28T21:27:40.938Z,7.80
2018-03-28T21:30:08.481Z,7.90
2018-03-28T21:32:36.022Z,8.00
2018-03-28T21:35:03.558Z,8.00
2018-03-28T21:37:31.870Z,8.20
2018-03-28T21:39:59.392Z,8.20
2018-03-28T21:42:27.707Z,8.40
2018-03-28T21:44:55.255Z,8.40
2018-03-28T21:47:22.792Z,8.50
2018-03-28T21:49:51.128Z,8.70
2018-03-28T21:52:18.673Z,8.70
2018-03-28T21:54:46.237Z,8.80
2018-03-28T21:57:13.779Z,8.80
2018-03-28T21:59:42.100Z,9.10
2018-03-28T22:02:09.613Z,9.10
2018-03-28T22:04:37.140Z,9.10
2018-03-28T22:07:05.455Z,9.10
2018-03-28T22:09:32.999Z,9.10
2018-03-28T22:12:00.556Z,9.10
2018-03-28T22:14:28.105Z,9.10
2018-03-28T22:16:55.616Z,9.10
2018-03-28T22:19:23.180Z,9.20
2018-03-28T22:21:50.802Z,9.10
2018-03-28T22:24:18.348Z,9.20
2018-03-28T22:26:45.938Z,9.10
2018-03-28T22:29:13.480Z,9.20
2018-03-28T22:31:41.020Z,9.20
2018-03-28T22:34:08.563Z,9.20
2018-03-28T22:36:36.841Z,9.20
2018-03-28T22:39:05.154Z,9.20
2018-03-28T22:41:32.693Z,9.10
2018-03-28T22:44:00.241Z,9.20
2018-03-28T22:46:28.549Z,9.10
2018-03-28T22:48:56.068Z,9.10
2018-03-28T22:51:24.397Z,9.00
2018-03-28T22:53:51.910Z,9.00
2018-03-28T22:56:20.217Z,9.10
2018-03-28T22:58:47.752Z,9.10
2018-03-28T23:01:16.052Z,9.10
2018-03-28T23:03:44.336Z,9.10
2018-03-28T23:06:12.035Z,9.10
2018-03-28T23:08:39.549Z,9.10
2018-03-28T23:11:07.090Z,9.20
2018-03-28T23:13:35.374Z,9.10
2018-03-28T23:16:02.895Z,9.10
2018-03-28T23:18:30.429Z,9.00
2018-03-28T23:20:57.949Z,8.90
2018-03-28T23:23:25.500Z,8.90
2018-03-28T23:25:53.801Z,8.90
2018-03-28T23:28:21.348Z,8.80
2018-03-28T23:30:48.877Z,8.90
2018-03-28T23:33:16.435Z,8.80
2018-03-28T23:35:44.743Z,8.90
2018-03-28T23:38:12.262Z,8.90
2018-03-28T23:40:39.820Z,8.80
2018-03-28T23:43:07.348Z,8.80
2018-03-28T23:45:34.904Z,8.70
2018-03-28T23:48:02.426Z,8.70
2018-03-28T23:50:29.988Z,8.70
2018-03-28T23:52:58.272Z,8.80
2018-03-28T23:55:25.822Z,8.70
2018-03-28T23:57:53.356Z,8.70
